Hlavní strana
METAR-TAF:

METAR-TAF

Letiště :

Rønne, Dánsko

zeměpisná šířka: 55-04N, zeměpisná délka: 014-45E, výška: 16 m

Aktuální stav počasí

Zpráva byla vytvořena před 16 minutami, v 13:20 UTC
Západní vítr 7 kt, proměnlivý mezi jihozápadním a západoseverozápadním
Teplota 10°C
Vlhkost vzduchu 93%
Tlak 1035 hPa
Viditelnost 10 km a více

METAR: EKRN 261320Z AUTO 27007KT 230V300 9999 BKN003/// 10/09 Q1035

Čas: 15:36 (13:36 UTC)

Předpověď počasí

Zpráva byla vytvořena před 2 hodinami a 14 minutami, v 11:22 UTC
Předpověď platná od 26 v 12 UTC do 26 v 21 UTC
Západojihozápadní vítr 5 kt
Viditelnost 10 km a více
Skoro jasno ve výšce 500 ft
Dočasný
od 26 v 12 UTC do 26 v 21 UTC
Viditelnost: 0600 m
ve výšce 100 ft
chuchvalce mlhy

TAF: EKRN 261122Z 2612/2621 25005KT 9999 FEW005 TEMPO 2612/2621 0600 BCFG VV001

Stav a předpovědi počasí z více než 4 000 letišť (zprávy METAR a TAF).

Červené a žluté tečky na mapě představují dostupné meteorologické stanice.

Když kurzor umístíte na tečku, zobrazí se název stanice.

Pak kliknutím zobrazíte stav a předpověď počasí.

Chcete-li změnit mapu, kliknutím na zelené tlačítko se znaménkem +mapu přiblížíte, kliknutím na zelené tlačítko se znaménkem – mapu oddálíte a kliknutím na zelené šipky přejdete na sousední mapy.


METAR-TAF: